Terminal Aerodrome Forecast
Issued by NWS

Home | Current Version | Previous Version | Text Only | Print | Product List | Glossary On
Versions: 1 2 3 4 5 6 7 8 9 10 11 12 13 14 15 16 17 18
336
FTUS43 KICT 161720
TAFSLN
TAF
KSLN 161720Z 1618/1718 31012KT P6SM SCT020 BKN035
      TEMPO 1618/1621 BKN018
     FM162300 31008KT P6SM BKN100
     FM170600 30008KT P6SM SCT200=

USA.gov is the U.S. government's official web portal to all federal, state and local government web resources and services.